createdAt,value
2022-10-19T00:01:05.359Z,4.87
2022-10-19T00:03:33.468Z,4.80
2022-10-19T00:06:12.211Z,4.43
2022-10-19T00:08:39.944Z,6.93
2022-10-19T00:11:07.979Z,5.93
2022-10-19T00:13:35.776Z,9.50
2022-10-19T00:16:11.335Z,7.57
2022-10-19T00:18:43.324Z,8.03
2022-10-19T00:21:14.325Z,6.30
2022-10-19T00:23:42.245Z,16.23
2022-10-19T00:26:10.109Z,12.70
2022-10-19T00:28:37.926Z,13.33
2022-10-19T00:31:06.757Z,8.70
2022-10-19T00:33:34.714Z,10.27
2022-10-19T00:36:06.389Z,10.10
2022-10-19T00:38:35.518Z,8.83
2022-10-19T00:41:03.746Z,6.43
2022-10-19T00:43:32.464Z,6.40
2022-10-19T00:46:00.192Z,8.43
2022-10-19T00:48:32.141Z,7.07
2022-10-19T00:51:00.982Z,5.33
2022-10-19T00:53:31.426Z,6.10
2022-10-19T00:56:06.497Z,5.20
2022-10-19T00:58:34.926Z,5.20
2022-10-19T01:01:06.028Z,4.20
2022-10-19T01:03:35.125Z,4.27
2022-10-19T01:06:04.086Z,4.33
2022-10-19T01:08:31.934Z,4.57
2022-10-19T01:11:15.227Z,6.03
2022-10-19T01:13:52.263Z,4.27
2022-10-19T01:16:29.164Z,5.53
2022-10-19T01:19:04.351Z,6.27
2022-10-19T01:21:37.118Z,5.70
2022-10-19T01:24:49.072Z,10.63
2022-10-19T01:27:55.541Z,10.23
2022-10-19T01:30:39.089Z,8.13
2022-10-19T01:33:32.899Z,13.17
2022-10-19T01:36:11.786Z,11.63
2022-10-19T01:38:51.902Z,8.77
2022-10-19T01:41:27.691Z,10.13
2022-10-19T01:44:00.789Z,9.83
2022-10-19T01:46:34.620Z,24.77
2022-10-19T01:49:08.960Z,19.13
2022-10-19T01:51:40.246Z,12.93
2022-10-19T01:54:14.098Z,11.17
2022-10-19T01:56:44.151Z,10.10
2022-10-19T01:59:13.318Z,17.33
2022-10-19T02:01:45.158Z,11.63
2022-10-19T02:04:16.690Z,16.67
2022-10-19T02:06:45.354Z,13.43
2022-10-19T02:09:17.889Z,14.20
2022-10-19T02:11:49.677Z,22.40
2022-10-19T02:14:23.206Z,19.50
2022-10-19T02:16:58.097Z,14.30
2022-10-19T02:19:26.028Z,15.17
2022-10-19T02:21:53.875Z,12.40
2022-10-19T02:24:21.560Z,12.85
2022-10-19T02:26:50.185Z,14.40
2022-10-19T02:29:18.200Z,15.87
2022-10-19T02:31:46.170Z,15.87
2022-10-19T02:34:15.444Z,34.17
2022-10-19T02:36:43.215Z,26.98
2022-10-19T02:39:11.111Z,17.70
2022-10-19T02:41:45.393Z,25.85
2022-10-19T02:44:19.284Z,11.70
2022-10-19T02:46:50.787Z,14.73
2022-10-19T02:49:20.389Z,17.40
2022-10-19T02:52:00.237Z,11.07
2022-10-19T02:54:28.683Z,12.98
2022-10-19T02:56:57.150Z,12.05
2022-10-19T02:59:25.537Z,15.18
2022-10-19T03:01:53.634Z,15.80
2022-10-19T03:04:22.706Z,17.15
2022-10-19T03:06:50.419Z,27.27
2022-10-19T03:09:20.470Z,14.07
2022-10-19T03:11:48.192Z,12.80
2022-10-19T03:14:15.919Z,16.83
2022-10-19T03:16:43.652Z,15.98
2022-10-19T03:19:11.416Z,13.73
2022-10-19T03:21:43.173Z,25.57
2022-10-19T03:24:10.954Z,17.63
2022-10-19T03:26:38.715Z,19.23
2022-10-19T03:29:06.436Z,15.67
2022-10-19T03:31:34.154Z,16.17
2022-10-19T03:34:02.021Z,12.77
2022-10-19T03:36:31.955Z,38.05
2022-10-19T03:39:03.138Z,36.47
2022-10-19T03:41:33.211Z,27.08
2022-10-19T03:46:34.788Z,14.10
2022-10-19T03:49:05.403Z,17.07
2022-10-19T03:54:06.922Z,21.63
2022-10-19T03:56:36.147Z,24.80
2022-10-19T03:59:06.001Z,25.93
2022-10-19T04:01:35.297Z,58.80
2022-10-19T04:04:05.729Z,42.93
2022-10-19T04:06:36.394Z,21.77
2022-10-19T04:09:06.992Z,25.17
2022-10-19T04:11:37.177Z,24.77
2022-10-19T04:16:40.690Z,19.27
2022-10-19T04:19:09.559Z,24.42
2022-10-19T04:21:40.403Z,19.03
2022-10-19T04:24:12.311Z,22.03
2022-10-19T04:26:42.191Z,30.90
2022-10-19T04:29:11.063Z,41.93
2022-10-19T04:31:41.890Z,43.25
2022-10-19T04:34:10.129Z,45.30
2022-10-19T04:36:38.102Z,37.42
2022-10-19T04:39:09.972Z,39.67
2022-10-19T04:41:39.348Z,38.80
2022-10-19T04:44:07.487Z,40.83
2022-10-19T04:46:35.637Z,35.37
2022-10-19T04:49:04.304Z,38.53
2022-10-19T04:51:32.201Z,40.42
2022-10-19T04:54:00.106Z,49.27
2022-10-19T04:56:30.787Z,69.97
2022-10-19T04:58:59.651Z,76.53
2022-10-19T05:01:30.857Z,83.63
2022-10-19T05:04:00.904Z,85.30
2022-10-19T05:06:29.225Z,140.73
2022-10-19T05:08:57.402Z,118.43
2022-10-19T05:11:25.735Z,118.17
2022-10-19T05:13:54.967Z,90.50
2022-10-19T05:16:24.377Z,87.50
2022-10-19T05:18:55.977Z,94.47
2022-10-19T05:21:23.750Z,94.67
2022-10-19T05:23:53.199Z,75.47
2022-10-19T05:26:23.422Z,75.03
2022-10-19T05:28:56.192Z,27.17
2022-10-19T05:31:27.897Z,12.60
2022-10-19T05:33:57.205Z,18.37
2022-10-19T05:36:27.550Z,12.00
2022-10-19T05:38:57.091Z,21.63
2022-10-19T05:41:26.347Z,38.73
2022-10-19T05:43:55.757Z,12.17
2022-10-19T05:46:28.155Z,17.43
2022-10-19T05:48:57.150Z,14.07
2022-10-19T05:51:26.045Z,13.67
2022-10-19T05:53:54.366Z,12.80
2022-10-19T05:56:24.213Z,14.13
2022-10-19T05:58:52.697Z,14.23
2022-10-19T06:01:21.057Z,13.73
2022-10-19T06:03:53.555Z,12.10
2022-10-19T06:06:21.493Z,12.80
2022-10-19T06:08:49.968Z,12.00
2022-10-19T06:11:19.679Z,14.20
2022-10-19T06:13:50.341Z,13.60
2022-10-19T06:16:19.798Z,15.73
2022-10-19T06:18:48.053Z,15.77
2022-10-19T06:21:22.648Z,10.33
2022-10-19T06:23:51.605Z,13.73
2022-10-19T06:26:19.570Z,9.97
2022-10-19T06:28:47.653Z,11.57
2022-10-19T06:31:15.660Z,12.27
2022-10-19T06:33:49.229Z,11.37
2022-10-19T06:36:23.129Z,9.83
2022-10-19T06:38:51.116Z,11.17
2022-10-19T06:41:18.861Z,10.73
2022-10-19T06:43:51.026Z,10.20
2022-10-19T06:46:23.101Z,9.33
2022-10-19T06:48:52.380Z,8.17
2022-10-19T06:51:22.137Z,14.53
2022-10-19T06:53:54.300Z,10.67
2022-10-19T06:56:25.468Z,6.77
2022-10-19T06:58:53.460Z,7.67
2022-10-19T07:01:21.607Z,6.37
2022-10-19T07:03:51.693Z,4.87
2022-10-19T07:06:21.355Z,4.63
2022-10-19T07:08:50.025Z,4.20
2022-10-19T07:11:19.919Z,5.82
2022-10-19T07:13:47.859Z,7.97
2022-10-19T07:16:20.931Z,8.57
2022-10-19T07:18:50.076Z,9.23
2022-10-19T07:21:18.868Z,9.17
2022-10-19T07:23:48.550Z,6.53
2022-10-19T07:26:21.295Z,5.63
2022-10-19T07:28:50.043Z,6.95
2022-10-19T07:31:21.511Z,8.50
2022-10-19T07:33:53.781Z,10.40
2022-10-19T07:36:21.651Z,8.82
2022-10-19T07:38:50.752Z,11.07
2022-10-19T07:41:20.917Z,7.50
2022-10-19T07:43:49.445Z,7.80
2022-10-19T07:46:19.406Z,8.15
2022-10-19T07:48:48.091Z,9.77
2022-10-19T07:51:18.151Z,12.82
2022-10-19T07:53:46.374Z,8.73
2022-10-19T07:56:17.142Z,13.43
2022-10-19T07:58:45.068Z,10.10
2022-10-19T08:01:15.373Z,10.65
2022-10-19T08:04:42.761Z,10.75
2022-10-19T08:06:31.643Z,10.00
2022-10-19T08:08:59.542Z,11.57
2022-10-19T08:11:32.047Z,8.50
2022-10-19T08:14:00.116Z,11.98
2022-10-19T08:16:29.417Z,10.40
2022-10-19T08:19:01.109Z,11.13
2022-10-19T08:21:31.263Z,8.30
2022-10-19T08:23:59.018Z,10.32
2022-10-19T08:26:29.608Z,12.80
2022-10-19T08:29:00.783Z,9.50
2022-10-19T08:31:29.086Z,9.27
2022-10-19T08:33:57.562Z,7.97
2022-10-19T08:36:25.996Z,9.13
2022-10-19T08:38:54.162Z,10.15
2022-10-19T08:41:56.503Z,7.53
2022-10-19T08:44:54.456Z,8.98
2022-10-19T08:47:46.173Z,5.82
2022-10-19T08:50:21.345Z,9.55
2022-10-19T08:52:56.284Z,9.15
2022-10-19T08:55:31.014Z,8.75
2022-10-19T08:58:11.266Z,10.48
2022-10-19T09:00:44.788Z,9.85
2022-10-19T09:03:32.146Z,10.10
2022-10-19T09:06:20.437Z,6.13
2022-10-19T09:08:49.383Z,9.07
2022-10-19T09:11:21.516Z,10.00
2022-10-19T09:14:05.038Z,7.93
2022-10-19T09:16:34.677Z,7.80
2022-10-19T09:19:02.834Z,6.65
2022-10-19T09:21:44.575Z,6.35
2022-10-19T09:24:28.324Z,8.55
2022-10-19T09:26:58.093Z,7.80
2022-10-19T09:29:37.377Z,5.13
2022-10-19T09:32:06.826Z,5.47
2022-10-19T09:34:38.227Z,5.05
2022-10-19T09:37:06.071Z,4.18
2022-10-19T09:39:35.280Z,4.28
2022-10-19T09:42:11.328Z,4.18
2022-10-19T09:44:40.514Z,5.63
2022-10-19T09:47:24.663Z,4.53
2022-10-19T09:50:06.222Z,4.15
2022-10-19T09:52:38.955Z,4.57
2022-10-19T09:55:08.663Z,3.60
2022-10-19T09:57:42.956Z,3.35
2022-10-19T10:00:20.309Z,4.55
2022-10-19T10:02:51.910Z,3.72
2022-10-19T10:05:21.478Z,2.90
2022-10-19T10:07:56.326Z,3.78
2022-10-19T10:10:29.646Z,3.00
2022-10-19T10:12:59.661Z,2.55
2022-10-19T10:15:36.269Z,2.17
2022-10-19T10:18:04.841Z,3.17
2022-10-19T10:20:33.320Z,4.03
2022-10-19T10:23:03.573Z,2.42
2022-10-19T10:25:33.808Z,2.35
2022-10-19T10:28:04.420Z,2.05
2022-10-19T10:30:36.250Z,4.38
2022-10-19T10:33:15.897Z,3.00
2022-10-19T10:35:53.784Z,2.45
2022-10-19T10:38:25.923Z,2.42
2022-10-19T10:40:57.759Z,2.33
2022-10-19T10:43:30.501Z,2.45
2022-10-19T10:46:05.624Z,1.83
2022-10-19T10:48:39.374Z,2.50
2022-10-19T10:51:20.770Z,2.83
2022-10-19T10:53:48.817Z,2.65
2022-10-19T10:56:25.898Z,2.40
2022-10-19T10:58:59.646Z,2.72
2022-10-19T11:01:31.990Z,2.75
2022-10-19T11:04:12.198Z,2.45
2022-10-19T11:06:45.299Z,2.88
2022-10-19T11:09:22.938Z,2.22
2022-10-19T11:11:55.847Z,3.40
2022-10-19T11:14:29.953Z,5.50
2022-10-19T11:17:04.643Z,2.97
2022-10-19T11:19:36.720Z,2.70
2022-10-19T11:22:16.952Z,2.40
2022-10-19T11:24:58.817Z,1.85
2022-10-19T11:27:42.096Z,4.95
2022-10-19T11:30:14.176Z,2.53
2022-10-19T11:32:58.321Z,3.17
2022-10-19T11:35:38.782Z,2.22
2022-10-19T11:38:29.612Z,3.15
2022-10-19T11:41:24.135Z,3.55
2022-10-19T11:44:17.944Z,2.97
2022-10-19T11:46:59.477Z,3.75
2022-10-19T11:49:42.764Z,4.65
2022-10-19T11:52:17.722Z,3.50
2022-10-19T11:55:00.992Z,4.38
2022-10-19T11:57:32.809Z,2.75
2022-10-19T12:00:15.339Z,3.50
2022-10-19T12:03:22.560Z,3.65
2022-10-19T12:06:03.799Z,2.88
2022-10-19T12:08:43.290Z,2.97
2022-10-19T12:11:26.044Z,3.75
2022-10-19T12:13:57.954Z,3.50
2022-10-19T12:16:31.811Z,2.97
2022-10-19T12:19:01.456Z,3.75
2022-10-19T12:21:34.547Z,4.00
2022-10-19T12:24:04.961Z,3.25
2022-10-19T12:26:37.807Z,2.38
2022-10-19T12:29:12.589Z,2.60
2022-10-19T12:31:41.173Z,2.38
2022-10-19T12:34:20.772Z,4.95
2022-10-19T12:36:56.497Z,3.17
2022-10-19T12:39:30.442Z,2.20
2022-10-19T12:42:10.532Z,2.25
2022-10-19T12:45:05.763Z,2.25
2022-10-19T12:47:36.169Z,2.35
2022-10-19T12:50:07.255Z,4.22
2022-10-19T12:52:40.605Z,3.28
2022-10-19T12:55:13.939Z,2.55
2022-10-19T12:57:47.976Z,2.85
2022-10-19T13:00:22.477Z,3.05
2022-10-19T13:02:59.509Z,2.90
2022-10-19T13:05:29.734Z,2.42
2022-10-19T13:08:03.273Z,5.90
2022-10-19T13:10:32.943Z,2.38
2022-10-19T13:13:01.490Z,3.20
2022-10-19T13:15:56.128Z,2.70
2022-10-19T13:19:09.359Z,3.25
2022-10-19T13:21:49.426Z,3.00
2022-10-19T13:24:32.269Z,2.22
2022-10-19T13:27:29.274Z,4.85
2022-10-19T13:29:57.253Z,3.47
2022-10-19T13:32:42.904Z,2.55
2022-10-19T13:35:31.260Z,3.40
2022-10-19T13:38:21.030Z,3.78
2022-10-19T13:41:03.943Z,2.50
2022-10-19T13:43:34.725Z,5.72
2022-10-19T13:46:08.731Z,5.22
2022-10-19T13:48:58.079Z,14.70
2022-10-19T13:51:33.214Z,3.28
2022-10-19T13:54:11.459Z,5.95
2022-10-19T13:56:56.345Z,2.72
2022-10-19T14:00:02.173Z,3.20
2022-10-19T14:03:01.006Z,3.10
2022-10-19T14:05:54.450Z,3.40
2022-10-19T14:08:40.033Z,2.97
2022-10-19T14:11:15.690Z,2.28
2022-10-19T14:13:45.037Z,3.47
2022-10-19T14:16:21.359Z,2.28
2022-10-19T14:18:55.782Z,3.95
2022-10-19T14:21:30.960Z,3.92
2022-10-19T14:23:59.164Z,2.63
2022-10-19T14:26:30.877Z,6.38
2022-10-19T14:29:00.911Z,2.20
2022-10-19T14:31:35.083Z,2.20
2022-10-19T14:34:05.002Z,3.47
2022-10-19T14:36:38.176Z,3.55
2022-10-19T14:39:07.639Z,2.85
2022-10-19T14:41:37.736Z,2.38
2022-10-19T14:44:37.264Z,2.38
2022-10-19T14:47:17.257Z,2.28
2022-10-19T14:49:45.057Z,1.80
2022-10-19T14:52:17.259Z,4.07
2022-10-19T14:54:48.592Z,5.55
2022-10-19T14:57:20.509Z,2.88
2022-10-19T14:59:53.148Z,2.10
2022-10-19T15:02:24.196Z,2.15
2022-10-19T15:04:53.893Z,4.25
2022-10-19T15:07:25.039Z,2.03
2022-10-19T15:09:57.602Z,3.83
2022-10-19T15:12:29.456Z,2.17
2022-10-19T15:14:59.085Z,3.67
2022-10-19T15:17:29.069Z,2.20
2022-10-19T15:20:01.388Z,4.20
2022-10-19T15:22:40.513Z,7.35
2022-10-19T15:25:35.350Z,2.40
2022-10-19T15:28:32.423Z,1.85
2022-10-19T15:31:06.879Z,3.53
2022-10-19T15:33:40.421Z,4.05
2022-10-19T15:36:16.915Z,4.10
2022-10-19T15:38:46.164Z,2.95
2022-10-19T15:41:22.562Z,3.53
2022-10-19T15:43:52.158Z,8.43
2022-10-19T15:46:24.923Z,5.53
2022-10-19T15:48:56.380Z,2.78
2022-10-19T15:51:46.875Z,3.38
2022-10-19T15:54:17.284Z,4.47
2022-10-19T15:56:46.719Z,3.90
2022-10-19T15:59:20.566Z,3.80
2022-10-19T16:01:55.044Z,3.55
2022-10-19T16:04:23.795Z,3.38
2022-10-19T16:06:51.574Z,5.78
2022-10-19T16:09:22.590Z,4.15
2022-10-19T16:11:56.399Z,4.18
2022-10-19T16:14:24.245Z,3.80
2022-10-19T16:16:53.304Z,2.80
2022-10-19T16:19:21.042Z,3.33
2022-10-19T16:21:50.410Z,2.58
2022-10-19T16:24:18.354Z,2.95
2022-10-19T16:26:46.104Z,2.35
2022-10-19T16:29:13.837Z,2.40
2022-10-19T16:31:41.819Z,2.40
2022-10-19T16:34:11.153Z,4.35
2022-10-19T16:36:38.876Z,2.95
2022-10-19T16:39:06.574Z,3.67
2022-10-19T16:41:34.360Z,3.78
2022-10-19T16:44:02.124Z,4.50
2022-10-19T16:46:29.924Z,3.90
2022-10-19T16:49:00.011Z,5.53
2022-10-19T16:51:35.034Z,4.90
2022-10-19T16:54:03.658Z,5.22
2022-10-19T16:56:32.124Z,5.90
2022-10-19T16:59:01.943Z,5.57
2022-10-19T17:01:30.890Z,5.30
2022-10-19T17:03:58.845Z,4.93
2022-10-19T17:06:28.482Z,5.27
2022-10-19T17:09:30.158Z,4.85
2022-10-19T17:11:48.900Z,5.10
2022-10-19T17:14:16.733Z,5.28
2022-10-19T17:16:46.917Z,4.78
2022-10-19T17:19:15.071Z,6.00
2022-10-19T17:21:43.148Z,4.60
2022-10-19T17:24:21.356Z,5.45
2022-10-19T17:26:51.781Z,5.10
2022-10-19T17:29:21.063Z,5.90
2022-10-19T17:31:49.540Z,5.40
2022-10-19T17:34:20.252Z,5.38
2022-10-19T17:36:48.148Z,6.00
2022-10-19T17:39:19.613Z,5.28
2022-10-19T17:41:48.878Z,5.47
2022-10-19T17:44:17.961Z,6.28
2022-10-19T17:46:46.225Z,5.88
2022-10-19T17:49:14.854Z,5.00
2022-10-19T17:51:42.622Z,5.67
2022-10-19T17:54:13.307Z,4.22
2022-10-19T17:56:45.112Z,5.10
2022-10-19T17:59:13.634Z,4.72
2022-10-19T18:01:43.618Z,4.47
2022-10-19T18:04:12.065Z,5.63
2022-10-19T18:06:40.278Z,6.00
2022-10-19T18:09:10.193Z,6.80
2022-10-19T18:11:40.925Z,7.05
2022-10-19T18:14:11.812Z,6.65
2022-10-19T18:16:42.090Z,6.78
2022-10-19T18:19:12.234Z,6.83
2022-10-19T18:21:41.868Z,7.67
2022-10-19T18:24:15.265Z,8.25
2022-10-19T18:26:44.137Z,7.50
2022-10-19T18:29:16.141Z,8.18
2022-10-19T18:31:44.068Z,8.10
2022-10-19T18:34:15.231Z,8.35
2022-10-19T18:36:43.764Z,8.55
2022-10-19T18:39:13.836Z,10.20
2022-10-19T18:41:42.257Z,8.63
2022-10-19T18:44:14.685Z,8.25
2022-10-19T18:46:42.614Z,7.20
2022-10-19T18:49:12.488Z,6.63
2022-10-19T18:51:40.552Z,6.57
2022-10-19T18:54:12.009Z,7.90
2022-10-19T18:56:39.757Z,10.77
2022-10-19T18:59:07.803Z,8.37
2022-10-19T19:01:36.908Z,7.85
2022-10-19T19:04:08.882Z,5.33
2022-10-19T19:06:37.410Z,6.20
2022-10-19T19:09:07.740Z,9.17
2022-10-19T19:11:38.124Z,7.65
2022-10-19T19:14:07.855Z,6.57
2022-10-19T19:16:39.106Z,9.20
2022-10-19T19:19:08.380Z,8.85
2022-10-19T19:21:36.928Z,9.52
2022-10-19T19:24:07.069Z,10.70
2022-10-19T19:26:38.248Z,10.80
2022-10-19T19:29:06.265Z,12.75
2022-10-19T19:31:34.355Z,13.65
2022-10-19T19:34:05.723Z,11.98
2022-10-19T19:36:33.581Z,13.13
2022-10-19T19:39:01.346Z,12.40
2022-10-19T19:41:31.094Z,12.13
2022-10-19T19:43:58.985Z,13.13
2022-10-19T19:46:27.459Z,14.40
2022-10-19T19:49:00.995Z,12.75
2022-10-19T19:51:31.750Z,12.60
2022-10-19T19:54:02.005Z,12.27
2022-10-19T19:56:29.988Z,12.77
2022-10-19T19:58:59.805Z,13.25
2022-10-19T20:01:27.951Z,12.83
2022-10-19T20:03:58.497Z,10.90
2022-10-19T20:06:26.322Z,13.05
2022-10-19T20:08:56.315Z,9.07
2022-10-19T20:11:25.585Z,11.57
2022-10-19T20:13:53.488Z,11.57
2022-10-19T20:16:26.592Z,12.20
2022-10-19T20:19:00.962Z,11.73
2022-10-19T20:21:28.764Z,15.40
2022-10-19T20:23:58.015Z,8.70
2022-10-19T20:26:27.040Z,11.65
2022-10-19T20:28:55.073Z,8.07
2022-10-19T20:31:23.437Z,11.27
2022-10-19T20:33:51.326Z,11.35
2022-10-19T20:36:21.079Z,11.03
2022-10-19T20:38:53.021Z,7.20
2022-10-19T20:41:25.957Z,11.30
2022-10-19T20:43:54.542Z,9.90
2022-10-19T20:46:24.717Z,8.77
2022-10-19T20:48:53.053Z,10.60
2022-10-19T20:51:26.019Z,11.27
2022-10-19T20:53:57.932Z,10.68
2022-10-19T20:56:29.516Z,11.40
2022-10-19T20:58:58.442Z,10.38
2022-10-19T21:01:26.406Z,11.32
2022-10-19T21:03:55.824Z,9.18
2022-10-19T21:06:26.125Z,8.73
2022-10-19T21:08:56.550Z,10.33
2022-10-19T21:11:26.351Z,7.28
2022-10-19T21:13:56.791Z,7.50
2022-10-19T21:16:27.441Z,9.02
2022-10-19T21:18:55.318Z,10.05
2022-10-19T21:21:24.779Z,10.55
2022-10-19T21:23:55.782Z,13.23
2022-10-19T21:26:26.296Z,11.18
2022-10-19T21:28:56.580Z,12.43
2022-10-19T21:31:25.816Z,13.35
2022-10-19T21:33:54.289Z,11.13
2022-10-19T21:36:24.998Z,12.23
2022-10-19T21:38:52.974Z,12.75
2022-10-19T21:41:25.494Z,13.82
2022-10-19T21:43:55.778Z,11.33
2022-10-19T21:46:24.667Z,12.65
2022-10-19T21:48:53.335Z,13.20
2022-10-19T21:51:29.650Z,13.00
2022-10-19T21:53:57.592Z,12.27
2022-10-19T21:56:25.372Z,14.25
2022-10-19T21:58:55.727Z,13.15
2022-10-19T22:01:25.522Z,13.68
2022-10-19T22:03:56.252Z,13.35
2022-10-19T22:06:24.092Z,13.93
2022-10-19T22:08:52.117Z,13.57
2022-10-19T22:11:20.328Z,13.70
2022-10-19T22:13:48.169Z,12.90
2022-10-19T22:16:19.804Z,12.57
2022-10-19T22:18:49.801Z,11.80
2022-10-19T22:21:22.964Z,11.57
2022-10-19T22:23:55.648Z,12.15
2022-10-19T22:26:25.579Z,12.27
2022-10-19T22:28:55.410Z,9.97
2022-10-19T22:31:25.489Z,12.13
2022-10-19T22:33:53.421Z,14.00
2022-10-19T22:36:21.594Z,15.95
2022-10-19T22:38:49.331Z,12.27
2022-10-19T22:41:19.525Z,12.13
2022-10-19T22:43:47.231Z,11.82
2022-10-19T22:46:15.061Z,8.88
2022-10-19T22:48:44.256Z,7.80
2022-10-19T22:51:14.267Z,7.78
2022-10-19T22:53:42.006Z,10.43
2022-10-19T22:56:12.279Z,12.77
2022-10-19T22:58:40.520Z,11.18
2022-10-19T23:01:10.275Z,13.43
2022-10-19T23:03:39.314Z,12.35
2022-10-19T23:06:08.762Z,13.23
2022-10-19T23:08:36.609Z,13.55
2022-10-19T23:11:04.699Z,14.15
2022-10-19T23:13:35.205Z,14.38
2022-10-19T23:16:03.807Z,14.37
2022-10-19T23:18:31.761Z,14.45
2022-10-19T23:21:01.464Z,13.80
2022-10-19T23:23:32.166Z,15.52
2022-10-19T23:26:04.824Z,15.00
2022-10-19T23:28:33.877Z,14.38
2022-10-19T23:31:05.661Z,14.10
2022-10-19T23:33:33.929Z,13.30
2022-10-19T23:36:06.775Z,13.95
2022-10-19T23:38:36.054Z,15.13
2022-10-19T23:41:03.971Z,14.10
2022-10-19T23:43:32.131Z,16.63
2022-10-19T23:46:02.123Z,13.67
2022-10-19T23:48:30.042Z,14.93
2022-10-19T23:50:59.169Z,14.77
2022-10-19T23:53:27.486Z,13.23
2022-10-19T23:56:00.695Z,13.77
2022-10-19T23:58:29.130Z,13.25
